Apollon D — A8QD6 — position and weather

sailwx.info

Track history (hours):
 
Tides and Currents Weather Stations Pressure Air Temp Water Temp Dewpoint Dewpoint Depression Visibility Wind Speed Wind Dir Waves Ship Positions

Apollon D

Last reported at 2018-Feb-17 10:52 UTC. Time now 2018-Feb-19 00:03 UTC.
Position N 33°41' E 134°44'.

Length 209 m; draft 10.2 m.

Type: Ship (hazmat cat A). MMSI: 636091614.

Date/timePositionNaut miles runAvg speedWind from/ knotsBaromVisibWave heightAir tempDewpointWater temp
2018-Feb-17 10:52N 33°41' E 134°44'920.7
2018-Feb-17 10:27N 33°48' E 134°50'919.3
2018-Feb-17 10:00N 33°56' E 134°53'1019.4
2018-Feb-17 09:31N 34°06' E 134°56'816.2
2018-Feb-17 09:00N 34°14' E 134°58'816.4
2018-Feb-17 08:30N 34°22' E 135°00'917.8
2018-Feb-17 08:00N 34°28' E 135°08'917.1
2018-Feb-17 07:30N 34°35' E 135°14'611.6
2018-Feb-17 07:00N 34°40' E 135°15'1 1.0
2018-Feb-17 06:28N 34°41' E 135°16'0 0.0
2018-Feb-17 06:01N 34°41' E 135°16'0 0.0
2018-Feb-17 05:30N 34°41' E 135°16'0 0.0
2018-Feb-17 05:00N 34°41' E 135°16'0 0.0
2018-Feb-17 04:30N 34°41' E 135°16'0 0.0
2018-Feb-17 04:00N 34°41' E 135°16'0 0.0
2018-Feb-17 03:31N 34°41' E 135°16'0 0.0
2018-Feb-17 03:00N 34°41' E 135°16'0 0.0
2018-Feb-17 02:30N 34°41' E 135°16'0 0.0
2018-Feb-17 02:00N 34°41' E 135°16'0 0.0
2018-Feb-17 01:30N 34°41' E 135°16'0 0.0
2018-Feb-17 01:00N 34°41' E 135°16'0 0.0
2018-Feb-17 00:30N 34°41' E 135°16'0 0.0
2018-Feb-17 00:01N 34°41' E 135°16'0 0.0
2018-Feb-16 23:30N 34°41' E 135°16'0 0.5
2018-Feb-16 23:01N 34°41' E 135°16'2 4.4
2018-Feb-16 22:30N 34°38' E 135°16'611.7
2018-Feb-16 22:00N 34°33' E 135°15'714.2
2018-Feb-16 21:31N 34°28' E 135°08'815.6
2018-Feb-16 21:01N 34°22' E 135°02'815.6
2018-Feb-16 20:30N 34°15' E 134°59'612.7
2018-Feb-16 20:00N 34°08' E 134°59'612.3
2018-Feb-16 19:30N 34°02' E 134°59'815.9
2018-Feb-16 19:01N 33°54' E 134°59'815.8
2018-Feb-16 18:30N 33°46' E 135°02'1716.3
2018-Feb-16 17:27N 33°35' E 135°17'816.3
2018-Feb-16 16:57N 33°29' E 135°24'6814.2
2018-Feb-16 12:08N 33°60' E 136°38'1016.1
2018-Feb-16 11:31N 34°06' E 136°47'015.5
2018-Feb-16 11:29N 34°06' E 136°47'2215.9
2018-Feb-16 10:06N 34°26' E 137°00'317.0
2018-Feb-16 09:57N 34°28' E 137°01'612.7
2018-Feb-16 09:30N 34°34' E 137°00'815.4
2018-Feb-16 08:58N 34°39' E 136°52'817.3
2018-Feb-16 08:30N 34°46' E 136°47'817.2
2018-Feb-16 08:00N 34°54' E 136°46'815.2
2018-Feb-16 07:30N 35°01' E 136°50'1 2.2
2018-Feb-16 06:59N 35°02' E 136°50'0 0.0
2018-Feb-16 06:29N 35°02' E 136°50'0 0.0
2018-Feb-16 05:59N 35°02' E 136°50'0 0.0
2018-Feb-16 05:29N 35°02' E 136°50'0 0.0
2018-Feb-16 04:53N 35°02' E 136°50'0 0.0
2018-Feb-16 04:29N 35°02' E 136°50'0 0.0
2018-Feb-16 03:59N 35°02' E 136°50'0 0.0
2018-Feb-16 03:29N 35°02' E 136°50'0 0.0
2018-Feb-16 02:59N 35°02' E 136°50'0 0.0
2018-Feb-16 02:29N 35°02' E 136°50'0 0.0
2018-Feb-16 01:59N 35°02' E 136°50'0 0.0
2018-Feb-16 01:29N 35°02' E 136°50'0 0.0
2018-Feb-16 00:59N 35°02' E 136°50'0 0.0
2018-Feb-16 00:29N 35°02' E 136°50'0 0.0
2018-Feb-15 23:59N 35°02' E 136°50'0 0.0
2018-Feb-15 23:29N 35°02' E 136°50'0 0.3
2018-Feb-15 23:00N 35°02' E 136°50'4 8.9
2018-Feb-15 22:30N 34°58' E 136°48'712.8
2018-Feb-15 22:00N 34°52' E 136°47'816.8
2018-Feb-15 21:30N 34°44' E 136°49'917.1
2018-Feb-15 21:00N 34°37' E 136°56'912.5
2018-Feb-15 20:16N 34°32' E 137°05'5 8.5
2018-Feb-15 19:42N 34°29' E 137°10'211.5
2018-Feb-15 19:30N 34°29' E 137°13'713.3
2018-Feb-15 18:58N 34°29' E 137°21'612.0
2018-Feb-15 18:30N 34°30' E 137°28'612.1
2018-Feb-15 17:59N 34°30' E 137°36'612.5
2018-Feb-15 17:28N 34°30' E 137°43'612.8
2018-Feb-15 16:59N 34°30' E 137°51'613.1
2018-Feb-15 16:30N 34°31' E 137°59'713.5
2018-Feb-15 15:59N 34°30' E 138°07'713.0
2018-Feb-15 15:26N 34°29' E 138°16'510.6
2018-Feb-15 15:00N 34°31' E 138°21'712.4
2018-Feb-15 14:27N 34°31' E 138°29'612.8
2018-Feb-15 13:59N 34°31' E 138°36'612.6
2018-Feb-15 13:30N 34°31' E 138°44'612.5
2018-Feb-15 13:00N 34°31' E 138°51'611.2
2018-Feb-15 12:30N 34°33' E 138°58'612.5
2018-Feb-15 11:59N 34°38' E 139°03'912.7
2018-Feb-15 11:19N 34°44' E 139°09'612.7
2018-Feb-15 10:51N 34°49' E 139°15'512.2
2018-Feb-15 10:26N 34°52' E 139°19'512.0
2018-Feb-15 10:00N 34°55' E 139°24'611.6
2018-Feb-15 09:30N 34°58' E 139°30'510.9
2018-Feb-15 09:00N 35°01' E 139°36'611.5
2018-Feb-15 08:30N 35°05' E 139°41'611.8
2018-Feb-15 08:00N 35°10' E 139°45'510.2
2018-Feb-15 07:30N 35°15' E 139°46'612.5
2018-Feb-15 07:01N 35°20' E 139°42'4 8.3
2018-Feb-15 06:30N 35°24' E 139°41'0 0.2
2018-Feb-15 05:58N 35°24' E 139°41'0 0.0
2018-Feb-15 05:28N 35°24' E 139°41'0 0.0
2018-Feb-15 04:58N 35°24' E 139°41'0 0.0
2018-Feb-15 04:28N 35°24' E 139°41'0 0.0
2018-Feb-15 03:58N 35°24' E 139°41'0 0.0
2018-Feb-15 03:28N 35°24' E 139°41'0 0.0
2018-Feb-15 02:58N 35°24' E 139°41'0 0.0
2018-Feb-15 02:28N 35°24' E 139°41'0 0.0
2018-Feb-15 01:58N 35°24' E 139°41'0 0.0
2018-Feb-15 01:28N 35°24' E 139°41'0 0.0
2018-Feb-15 00:58N 35°24' E 139°41'0 0.0
2018-Feb-15 00:28N 35°24' E 139°41'0 0.0
2018-Feb-14 23:58N 35°24' E 139°41'0 0.0
2018-Feb-14 23:28N 35°24' E 139°41'0 0.0
2018-Feb-14 22:58N 35°24' E 139°41'0 0.2
2018-Feb-14 22:28N 35°24' E 139°41'2 4.5
2018-Feb-14 22:00N 35°25' E 139°43'713.6
2018-Feb-14 21:30N 35°29' E 139°50'611.1
2018-Feb-14 21:00N 35°34' E 139°49'3 1.2
2018-Feb-14 18:25N 35°36' E 139°46'0 0.0
2018-Feb-14 17:43N 35°36' E 139°46'0 0.0
2018-Feb-14 17:22N 35°36' E 139°46'0 0.0
2018-Feb-14 16:58N 35°36' E 139°46'0 0.0
2018-Feb-14 16:31N 35°36' E 139°46'0 0.0
2018-Feb-14 15:58N 35°36' E 139°46'0 0.0
2018-Feb-14 15:24N 35°36' E 139°46'0 0.0
2018-Feb-14 14:58N 35°36' E 139°46'0 0.0
2018-Feb-14 08:55N 35°36' E 139°46'2 5.5
2018-Feb-14 08:28N 35°34' E 139°48'612.5
2018-Feb-14 08:01N 35°30' E 139°52'816.0
2018-Feb-14 07:31N 35°23' E 139°46'612.3
2018-Feb-14 07:00N 35°17' E 139°45'612.5
2018-Feb-14 06:30N 35°11' E 139°47'612.0
2018-Feb-14 06:00N 35°06' E 139°43'713.7
2018-Feb-14 05:30N 35°01' E 139°37'714.8
2018-Feb-14 05:00N 34°57' E 139°29'2716.3
2018-Feb-14 03:20N 34°38' E 139°06'716.4
2018-Feb-14 02:54N 34°32' E 139°00'1316.8
2018-Feb-14 02:06N 34°26' E 138°46'216.6
2018-Feb-14 02:00N 34°26' E 138°44'917.2
2018-Feb-14 01:30N 34°22' E 138°35'  
2018-Feb-11 17:07N 25°28' E 121°13'219.4
2018-Feb-11 17:00N 25°27' E 121°11'1019.4
2018-Feb-11 16:30N 25°21' E 121°02'1019.3
2018-Feb-11 16:00N 25°16' E 120°53'21517.2
2018-Feb-11 03:30N 23°18' E 117°37'915.9
2018-Feb-11 02:57N 23°13' E 117°29'  
Track history (hours):
 
Tides and Currents Weather Stations Pressure Air Temp Water Temp Dewpoint Dewpoint Depression Visibility Wind Speed Wind Dir Waves Ship Positions

Apollon D

Last reported at 2018-Feb-17 10:52 UTC. Time now 2018-Feb-19 00:03 UTC.
Position N 33°41' E 134°44'.

Length 209 m; draft 10.2 m.

Type: Ship (hazmat cat A). MMSI: 636091614.

Date/timePositionNaut miles runAvg speedWind from/ knotsBaromVisibWave heightAir tempDewpointWater temp
2018-Feb-17 10:52N 33°41' E 134°44'920.7
2018-Feb-17 10:27N 33°48' E 134°50'919.3
2018-Feb-17 10:00N 33°56' E 134°53'1019.4
2018-Feb-17 09:31N 34°06' E 134°56'816.2
2018-Feb-17 09:00N 34°14' E 134°58'816.4
2018-Feb-17 08:30N 34°22' E 135°00'917.8
2018-Feb-17 08:00N 34°28' E 135°08'917.1
2018-Feb-17 07:30N 34°35' E 135°14'611.6
2018-Feb-17 07:00N 34°40' E 135°15'1 1.0
2018-Feb-17 06:28N 34°41' E 135°16'0 0.0
2018-Feb-17 06:01N 34°41' E 135°16'0 0.0
2018-Feb-17 05:30N 34°41' E 135°16'0 0.0
2018-Feb-17 05:00N 34°41' E 135°16'0 0.0
2018-Feb-17 04:30N 34°41' E 135°16'0 0.0
2018-Feb-17 04:00N 34°41' E 135°16'0 0.0
2018-Feb-17 03:31N 34°41' E 135°16'0 0.0
2018-Feb-17 03:00N 34°41' E 135°16'0 0.0
2018-Feb-17 02:30N 34°41' E 135°16'0 0.0
2018-Feb-17 02:00N 34°41' E 135°16'0 0.0
2018-Feb-17 01:30N 34°41' E 135°16'0 0.0
2018-Feb-17 01:00N 34°41' E 135°16'0 0.0
2018-Feb-17 00:30N 34°41' E 135°16'0 0.0
2018-Feb-17 00:01N 34°41' E 135°16'0 0.0
2018-Feb-16 23:30N 34°41' E 135°16'0 0.5
2018-Feb-16 23:01N 34°41' E 135°16'2 4.4
2018-Feb-16 22:30N 34°38' E 135°16'611.7
2018-Feb-16 22:00N 34°33' E 135°15'714.2
2018-Feb-16 21:31N 34°28' E 135°08'815.6
2018-Feb-16 21:01N 34°22' E 135°02'815.6
2018-Feb-16 20:30N 34°15' E 134°59'612.7
2018-Feb-16 20:00N 34°08' E 134°59'612.3
2018-Feb-16 19:30N 34°02' E 134°59'815.9
2018-Feb-16 19:01N 33°54' E 134°59'815.8
2018-Feb-16 18:30N 33°46' E 135°02'1716.3
2018-Feb-16 17:27N 33°35' E 135°17'816.3
2018-Feb-16 16:57N 33°29' E 135°24'6814.2
2018-Feb-16 12:08N 33°60' E 136°38'1016.1
2018-Feb-16 11:31N 34°06' E 136°47'015.5
2018-Feb-16 11:29N 34°06' E 136°47'2215.9
2018-Feb-16 10:06N 34°26' E 137°00'317.0
2018-Feb-16 09:57N 34°28' E 137°01'612.7
2018-Feb-16 09:30N 34°34' E 137°00'815.4
2018-Feb-16 08:58N 34°39' E 136°52'817.3
2018-Feb-16 08:30N 34°46' E 136°47'817.2
2018-Feb-16 08:00N 34°54' E 136°46'815.2
2018-Feb-16 07:30N 35°01' E 136°50'1 2.2
2018-Feb-16 06:59N 35°02' E 136°50'0 0.0
2018-Feb-16 06:29N 35°02' E 136°50'0 0.0
2018-Feb-16 05:59N 35°02' E 136°50'0 0.0
2018-Feb-16 05:29N 35°02' E 136°50'0 0.0
2018-Feb-16 04:53N 35°02' E 136°50'0 0.0
2018-Feb-16 04:29N 35°02' E 136°50'0 0.0
2018-Feb-16 03:59N 35°02' E 136°50'0 0.0
2018-Feb-16 03:29N 35°02' E 136°50'0 0.0
2018-Feb-16 02:59N 35°02' E 136°50'0 0.0
2018-Feb-16 02:29N 35°02' E 136°50'0 0.0
2018-Feb-16 01:59N 35°02' E 136°50'0 0.0
2018-Feb-16 01:29N 35°02' E 136°50'0 0.0
2018-Feb-16 00:59N 35°02' E 136°50'0 0.0
2018-Feb-16 00:29N 35°02' E 136°50'0 0.0
2018-Feb-15 23:59N 35°02' E 136°50'0 0.0
2018-Feb-15 23:29N 35°02' E 136°50'0 0.3
2018-Feb-15 23:00N 35°02' E 136°50'4 8.9
2018-Feb-15 22:30N 34°58' E 136°48'712.8
2018-Feb-15 22:00N 34°52' E 136°47'816.8
2018-Feb-15 21:30N 34°44' E 136°49'917.1
2018-Feb-15 21:00N 34°37' E 136°56'912.5
2018-Feb-15 20:16N 34°32' E 137°05'5 8.5
2018-Feb-15 19:42N 34°29' E 137°10'211.5
2018-Feb-15 19:30N 34°29' E 137°13'713.3
2018-Feb-15 18:58N 34°29' E 137°21'612.0
2018-Feb-15 18:30N 34°30' E 137°28'612.1
2018-Feb-15 17:59N 34°30' E 137°36'612.5
2018-Feb-15 17:28N 34°30' E 137°43'612.8
2018-Feb-15 16:59N 34°30' E 137°51'613.1
2018-Feb-15 16:30N 34°31' E 137°59'713.5
2018-Feb-15 15:59N 34°30' E 138°07'713.0
2018-Feb-15 15:26N 34°29' E 138°16'510.6
2018-Feb-15 15:00N 34°31' E 138°21'712.4
2018-Feb-15 14:27N 34°31' E 138°29'612.8
2018-Feb-15 13:59N 34°31' E 138°36'612.6
2018-Feb-15 13:30N 34°31' E 138°44'612.5
2018-Feb-15 13:00N 34°31' E 138°51'611.2
2018-Feb-15 12:30N 34°33' E 138°58'612.5
2018-Feb-15 11:59N 34°38' E 139°03'912.7
2018-Feb-15 11:19N 34°44' E 139°09'612.7
2018-Feb-15 10:51N 34°49' E 139°15'512.2
2018-Feb-15 10:26N 34°52' E 139°19'512.0
2018-Feb-15 10:00N 34°55' E 139°24'611.6
2018-Feb-15 09:30N 34°58' E 139°30'510.9
2018-Feb-15 09:00N 35°01' E 139°36'611.5
2018-Feb-15 08:30N 35°05' E 139°41'611.8
2018-Feb-15 08:00N 35°10' E 139°45'510.2
2018-Feb-15 07:30N 35°15' E 139°46'612.5
2018-Feb-15 07:01N 35°20' E 139°42'4 8.3
2018-Feb-15 06:30N 35°24' E 139°41'0 0.2
2018-Feb-15 05:58N 35°24' E 139°41'0 0.0
2018-Feb-15 05:28N 35°24' E 139°41'0 0.0
2018-Feb-15 04:58N 35°24' E 139°41'0 0.0
2018-Feb-15 04:28N 35°24' E 139°41'0 0.0
2018-Feb-15 03:58N 35°24' E 139°41'0 0.0
2018-Feb-15 03:28N 35°24' E 139°41'0 0.0
2018-Feb-15 02:58N 35°24' E 139°41'0 0.0
2018-Feb-15 02:28N 35°24' E 139°41'0 0.0
2018-Feb-15 01:58N 35°24' E 139°41'0 0.0
2018-Feb-15 01:28N 35°24' E 139°41'0 0.0
2018-Feb-15 00:58N 35°24' E 139°41'0 0.0
2018-Feb-15 00:28N 35°24' E 139°41'0 0.0
2018-Feb-14 23:58N 35°24' E 139°41'0 0.0
2018-Feb-14 23:28N 35°24' E 139°41'0 0.0
2018-Feb-14 22:58N 35°24' E 139°41'0 0.2
2018-Feb-14 22:28N 35°24' E 139°41'2 4.5
2018-Feb-14 22:00N 35°25' E 139°43'713.6
2018-Feb-14 21:30N 35°29' E 139°50'611.1
2018-Feb-14 21:00N 35°34' E 139°49'3 1.2
2018-Feb-14 18:25N 35°36' E 139°46'0 0.0
2018-Feb-14 17:43N 35°36' E 139°46'0 0.0
2018-Feb-14 17:22N 35°36' E 139°46'0 0.0
2018-Feb-14 16:58N 35°36' E 139°46'0 0.0
2018-Feb-14 16:31N 35°36' E 139°46'0 0.0
2018-Feb-14 15:58N 35°36' E 139°46'0 0.0
2018-Feb-14 15:24N 35°36' E 139°46'0 0.0
2018-Feb-14 14:58N 35°36' E 139°46'0 0.0
2018-Feb-14 08:55N 35°36' E 139°46'2 5.5
2018-Feb-14 08:28N 35°34' E 139°48'612.5
2018-Feb-14 08:01N 35°30' E 139°52'816.0
2018-Feb-14 07:31N 35°23' E 139°46'612.3
2018-Feb-14 07:00N 35°17' E 139°45'612.5
2018-Feb-14 06:30N 35°11' E 139°47'612.0
2018-Feb-14 06:00N 35°06' E 139°43'713.7
2018-Feb-14 05:30N 35°01' E 139°37'714.8
2018-Feb-14 05:00N 34°57' E 139°29'2716.3
2018-Feb-14 03:20N 34°38' E 139°06'716.4
2018-Feb-14 02:54N 34°32' E 139°00'1316.8
2018-Feb-14 02:06N 34°26' E 138°46'216.6
2018-Feb-14 02:00N 34°26' E 138°44'917.2
2018-Feb-14 01:30N 34°22' E 138°35'  
2018-Feb-11 17:07N 25°28' E 121°13'219.4
2018-Feb-11 17:00N 25°27' E 121°11'1019.4
2018-Feb-11 16:30N 25°21' E 121°02'1019.3
2018-Feb-11 16:00N 25°16' E 120°53'21517.2
2018-Feb-11 03:30N 23°18' E 117°37'915.9
2018-Feb-11 02:57N 23°13' E 117°29'  

Dump ship's entire track history